Latest Weather Observations for Liawenee

IDT60801

Issued at 5:01 pm EST Thursday 18 July 2019 (issued every 10 minutes, with the page automatically refreshed every 10 minutes)

About weather observations | Map of weather stations | Latest weather observations for TAS | Other Formats
Station Details ID: 096033 Name: LIAWENEE Lat: -41.90 Lon: 146.67 Height: 1057.0 m
Data from the previous 72 hours. | See also: Recent months at Liawenee
Date/Time
EST
Temp
°C
App
Temp
°C
Dew
Point
°C
Rel
Hum
%
Delta-T
°C
Wind Press
QNH
hPa
Press
MSL
hPa
Rain since
9am
mm
Dir  Spd
km/h
Gust
km/h
Spd
kts
Gust
kts
18/05:00pm 2.0 -4.7 1.4 96 0.2 WNW 26 39 14 21 1005.3 1007.4 0.0
18/04:36pm 2.1 -5.1 0.9 92 0.5 NW 28 46 15 25 1005.9 1008.0 0.0
18/04:30pm 1.9 -5.2 1.3 96 0.2 NW 28 41 15 22 1005.9 1008.0 0.0
18/04:00pm 1.6 -4.0 1.5 99 0.0 NW 20 35 11 19 1006.4 1008.6 0.0
18/03:30pm 1.7 -5.0 1.6 99 0.0 WNW 26 35 14 19 1007.0 1009.1 0.0
18/03:22pm 2.0 -5.2 0.7 91 0.5 WNW 28 35 15 19 1007.0 1009.1 0.0
18/03:00pm 2.6 -1.2 -1.0 77 1.4 NNW 9 17 5 9 1007.0 1009.1 0.0
18/02:30pm 2.2 -2.4 1.3 94 0.4 WNW 15 24 8 13 1007.1 1009.2 0.0
18/02:00pm 1.8 -3.5 1.7 99 0.0 W 19 30 10 16 1007.0 1009.1 0.0
18/01:30pm 2.3 -1.4 2.2 99 0.0 WSW 11 17 6 9 1007.3 1009.5 0.0
18/01:00pm 2.1 -0.9 2.0 99 0.0 WSW 7 11 4 6 1007.7 1009.8 0.0
18/12:30pm 1.7 -2.1 1.6 99 0.0 WNW 11 24 6 13 1008.3 1010.5 0.0
18/12:00pm 1.6 -1.5 1.5 99 0.0 WSW 7 15 4 8 1008.9 1011.1 0.0
18/11:30am 1.2 -3.1 1.1 99 0.0 SW 13 17 7 9 1008.9 1011.1 0.0
18/11:00am 0.8 -3.9 0.7 99 0.0 WSW 15 19 8 10 1009.2 1011.4 0.0
18/10:30am 0.8 -2.8 0.8 100 0.0 WSW 9 13 5 7 1009.5 1011.8 0.0
18/10:00am 0.7 -1.9 0.7 100 0.0 NNW 4 9 2 5 1009.5 1011.8 0.0
18/09:30am -0.2 -5.4 -0.2 100 0.0 W 17 20 9 11 1009.3 1011.5 0.0
18/09:00am -0.3 -5.9 -0.3 100 0.0 W 19 26 10 14 1009.2 1011.4 13.0
18/08:30am -0.8 -6.5 -0.8 100 0.0 WSW 19 24 10 13 1008.8 1011.0 13.0
18/08:00am -2.2 -8.3 -2.2 100 0.0 W 20 26 11 14 1008.6 1010.8 13.0
18/07:30am -1.9 -7.8 -1.9 100 0.0 SW 19 24 10 13 1008.6 1010.8 13.0
18/07:00am -2.4 -6.0 -2.4 100 0.0 SW 7 11 4 6 1008.8 1011.0 13.0
18/06:30am -2.7 -7.9 -2.7 100 0.0 WSW 15 20 8 11 1008.3 1010.5 13.0
18/06:00am -2.0 -8.1 -2.0 100 0.0 WSW 20 28 11 15 1007.9 1010.0 13.0
18/05:30am -1.1 -8.2 -1.1 100 0.0 WSW 26 39 14 21 1007.4 1009.6 13.0
18/05:00am -0.6 -8.4 -0.6 100 0.0 SW 30 41 16 22 1007.3 1009.5 13.0
18/04:30am -0.9 -9.3 -0.9 100 0.0 SW 33 48 18 26 1006.3 1008.5 13.0
18/04:00am -0.9 -9.7 -0.9 100 0.0 WSW 35 48 19 26 1005.8 1007.9 13.0
18/03:30am -0.8 -9.0 -0.8 100 0.0 SW 32 44 17 24 1005.7 1007.8 13.0
18/03:00am -1.1 -10.3 -1.1 100 0.0 SW 37 50 20 27 1005.7 1007.8 13.0
18/02:53am -0.9 -10.4 -0.9 100 0.0 SW 39 50 21 27 1005.7 1007.8 13.0
18/02:30am -0.8 -7.5 -0.8 100 0.0 WSW 24 32 13 17 1005.7 1007.8 13.0
18/02:00am -0.8 -9.0 -0.8 100 0.0 SW 32 46 17 25 1005.0 1007.1 12.4
18/01:30am -0.8 -8.6 -0.8 100 0.0 SW 30 37 16 20 1004.2 1006.3 11.2
18/01:00am -1.0 -8.8 -1.0 100 0.0 SW 30 39 16 21 1003.7 1005.7 10.8
18/12:30am -1.1 -10.6 -1.1 100 0.0 SW 39 63 21 34 1002.7 1004.7 10.4
18/12:20am -1.1 -10.6 -1.1 100 0.0 SW 39 57 21 31 1002.3 1004.4 10.0
18/12:00am -1.2 -11.7 -1.2 100 0.0 SW 44 57 24 31 1002.6 1004.6 9.6
 
Date/Time
EST
Temp
°C
App
Temp
°C
Dew
Point
°C
Rel
Hum
%
Delta-T
°C
Wind Press
QNH
hPa
Press
MSL
hPa
Rain since
9am
mm
Dir  Spd
km/h
Gust
km/h
Spd
kts
Gust
kts
17/11:39pm -1.0 -9.8 -1.0 100 0.0 WSW 35 54 19 29 1002.1 1004.1 9.2
17/11:30pm -1.1 -9.5 -1.1 100 0.0 WSW 33 46 18 25 1002.1 1004.1 9.2
17/11:00pm -0.9 -10.4 -0.9 100 0.0 SW 39 56 21 30 1001.9 1003.9 9.0
17/10:35pm -0.6 -8.0 -0.6 100 0.0 SW 28 48 15 26 1001.7 1003.7 8.4
17/10:30pm -0.5 -6.7 -0.5 100 0.0 SW 22 30 12 16 1001.6 1003.6 8.4
17/10:00pm -0.6 -7.6 -0.6 100 0.0 WSW 26 33 14 18 1001.0 1003.0 7.6
17/09:30pm -0.6 -8.4 -0.6 100 0.0 WSW 30 43 16 23 1000.9 1002.9 7.0
17/09:00pm -0.9 -8.7 -0.9 100 0.0 WSW 30 46 16 25 1000.8 1002.8 7.0
17/08:40pm -0.7 -9.4 -0.7 100 0.0 SW 35 54 19 29 1000.8 1002.8 6.4
17/08:30pm -0.6 -10.5 -0.6 100 0.0 SW 41 52 22 28 1000.6 1002.5 6.2
17/08:00pm 0.0 -10.2 0.0 100 0.0 WSW 43 70 23 38 999.9 1001.9 6.2
17/07:50pm 0.1 -8.9 0.1 100 0.0 WSW 37 59 20 32 1000.1 1002.1 6.2
17/07:30pm 0.0 -8.6 0.0 100 0.0 WSW 35 48 19 26 1000.0 1002.0 6.2
17/07:00pm -0.1 -10.3 -0.1 100 0.0 WSW 43 57 23 31 999.5 1001.4 6.0
17/06:30pm 0.0 -9.8 0.0 100 0.0 WSW 41 57 22 31 999.2 1001.2 5.4
17/06:04pm -0.1 -9.5 -0.1 100 0.0 WSW 39 57 21 31 999.0 1000.9 5.4
17/06:00pm -0.2 -10.0 -0.2 100 0.0 WSW 41 57 22 31 999.1 1001.1 5.2
17/05:52pm -0.1 -8.4 -0.1 100 0.0 WSW 33 57 18 31 999.0 1000.9 5.0
17/05:30pm 0.1 -8.5 0.1 100 0.0 WSW 35 52 19 28 998.6 1000.5 4.8
17/05:29pm 0.1 -8.5 0.1 100 0.0 WSW 35 52 19 28 998.7 1000.6 4.8
17/05:00pm 0.3 -6.2 0.3 100 0.0 WSW 24 32 13 17 998.8 1000.7 4.4
17/04:30pm 0.7 -7.4 0.7 100 0.0 WSW 33 44 18 24 998.3 1000.3 4.0
17/04:00pm 0.3 -10.0 0.3 100 0.0 WSW 44 69 24 37 997.8 999.7 3.6
17/03:48pm 1.1 -9.8 1.1 100 0.0 WSW 48 83 26 45 997.7 999.6 3.4
17/03:36pm 1.7 -7.8 1.7 100 0.0 WSW 41 59 22 32 997.3 999.2 3.4
17/03:30pm 1.7 -8.2 1.7 100 0.0 WSW 43 56 23 30 997.3 999.2 3.4
17/03:03pm 1.7 -8.2 1.7 100 0.0 WSW 43 61 23 33 997.2 999.1 2.4
17/03:00pm 2.3 -7.7 2.3 100 0.0 WSW 44 61 24 33 997.1 999.0 2.4
17/02:40pm 1.9 -6.1 1.9 100 0.0 WSW 33 52 18 28 997.2 999.1 2.2
17/02:30pm 2.2 -5.1 2.2 100 0.0 WSW 30 41 16 22 997.6 999.5 2.0
17/02:00pm 1.5 -7.7 1.5 100 0.0 W 39 61 21 33 998.5 1000.4 1.4
17/01:53pm 1.8 -7.3 1.8 100 0.0 W 39 61 21 33 998.5 1000.4 1.2
17/01:30pm 2.6 -5.0 2.6 100 0.0 WNW 32 48 17 26 997.9 999.8 0.8
17/01:00pm 3.0 -5.9 3.0 100 0.0 WNW 39 63 21 34 998.6 1000.5 0.0
17/12:45pm 3.0 -5.1 3.0 100 0.0 WNW 35 57 19 31 998.6 1000.5 0.0
17/12:30pm 3.6 -4.4 3.6 100 0.0 WNW 35 50 19 27 998.9 1000.8 0.0
17/12:00pm 4.5 -3.4 4.4 99 0.0 WNW 35 54 19 29 1000.0 1002.0 0.0
17/11:41am 4.5 -2.2 3.9 96 0.3 WNW 28 48 15 26 1000.7 1002.7 0.0
17/11:30am 4.4 -1.8 4.3 99 0.0 WNW 26 43 14 23 1001.0 1003.0 0.0
17/11:18am 4.2 -2.4 4.1 99 0.0 WNW 28 46 15 25 1001.3 1003.3 0.0
17/11:00am 4.0 -3.0 3.9 99 0.0 WNW 30 46 16 25 1001.8 1003.8 0.0
17/10:34am 4.1 -2.9 4.0 99 0.0 WNW 30 50 16 27 1002.4 1004.5 0.0
17/10:30am 3.8 -2.9 3.7 99 0.0 WNW 28 44 15 24 1002.6 1004.6 0.0
17/10:00am 3.7 -3.0 3.7 100 0.0 WNW 28 41 15 22 1002.9 1004.9 0.0
17/09:30am 3.1 -2.6 3.0 99 0.0 WNW 22 33 12 18 1003.3 1005.4 0.0
17/09:00am 3.3 -2.7 3.2 99 0.0 WNW 24 43 13 23 1003.7 1005.7 0.0
17/08:50am 3.0 -3.8 3.0 100 0.0 W 28 46 15 25 1003.8 1005.8 0.0
17/08:30am 2.9 -4.7 2.9 100 0.0 W 32 46 17 25 1003.9 1006.0 0.0
17/08:00am 3.1 -5.8 3.0 99 0.0 W 39 57 21 31 1004.0 1006.1 0.0
17/07:46am 3.2 -4.9 3.2 100 0.0 WNW 35 57 19 31 1004.1 1006.2 0.0
17/07:30am 2.9 -4.9 2.9 100 0.0 WNW 33 50 18 27 1004.8 1006.9 0.0
17/07:22am 2.9 -4.7 2.9 100 0.0 WNW 32 50 17 27 1005.0 1007.1 0.0
17/07:00am 2.6 -4.7 2.6 100 0.0 W 30 46 16 25 1005.2 1007.3 0.0
17/06:30am 2.4 -4.5 2.4 100 0.0 W 28 41 15 22 1005.1 1007.2 0.0
17/06:00am 2.4 -4.1 2.4 100 0.0 W 26 37 14 20 1005.8 1007.9 0.0
17/05:30am 2.3 -2.6 2.3 100 0.0 WNW 17 28 9 15 1005.8 1007.9 0.0
17/05:00am 2.3 -4.3 2.3 100 0.0 W 26 35 14 19 1006.3 1008.5 0.0
17/04:30am 2.4 -4.1 2.4 100 0.0 W 26 37 14 20 1006.7 1008.8 0.0
17/04:00am 2.4 -3.0 2.4 100 0.0 W 20 35 11 19 1007.2 1009.4 0.0
17/03:30am 2.4 -2.1 2.4 100 0.0 W 15 20 8 11 1008.2 1010.4 0.0
17/03:00am 2.4 -2.4 2.4 100 0.0 W 17 26 9 14 1008.5 1010.7 0.0
17/02:30am 2.5 -2.9 2.5 100 0.0 W 20 30 11 16 1008.9 1011.1 0.0
17/02:00am 2.5 -2.7 2.5 100 0.0 W 19 28 10 15 1009.1 1011.3 0.0
17/01:30am 3.1 -2.2 3.1 100 0.0 W 20 26 11 14 1009.3 1011.5 0.0
17/01:00am 3.0 -1.0 3.0 100 0.0 WNW 13 19 7 10 1009.4 1011.6 0.0
17/12:30am 3.2 -1.1 3.2 100 0.0 WNW 15 22 8 12 1009.8 1012.0 0.0
17/12:00am 3.1 -1.2 3.1 100 0.0 WNW 15 20 8 11 1010.1 1012.3 0.0
 
Date/Time
EST
Temp
°C
App
Temp
°C
Dew
Point
°C
Rel
Hum
%
Delta-T
°C
Wind Press
QNH
hPa
Press
MSL
hPa
Rain since
9am
mm
Dir  Spd
km/h
Gust
km/h
Spd
kts
Gust
kts
16/11:30pm 3.4 -1.6 3.4 100 0.0 WNW 19 24 10 13 1010.4 1012.7 0.0
16/11:00pm 3.3 -1.8 3.3 100 0.0 WNW 19 26 10 14 1010.4 1012.7 0.0
16/10:30pm 3.4 -1.3 3.4 100 0.0 WNW 17 22 9 12 1010.9 1013.1 0.0
16/10:00pm 3.2 -1.1 3.2 100 0.0 WNW 15 20 8 11 1011.0 1013.2 0.0
16/09:30pm 3.4 -0.1 3.4 100 0.0 WNW 11 19 6 10 1011.2 1013.5 0.0
16/09:00pm 3.2 0.0 3.2 100 0.0 NW 9 15 5 8 1011.0 1013.2 0.0
16/08:30pm 3.3 -0.2 3.3 100 0.0 WNW 11 15 6 8 1011.1 1013.3 0.0
16/08:00pm 3.3 -0.6 3.3 100 0.0 W 13 20 7 11 1011.2 1013.5 0.0
16/07:30pm 3.2 -1.9 3.2 100 0.0 WSW 19 26 10 14 1011.2 1013.5 0.0
16/07:00pm 3.3 -2.7 3.3 100 0.0 WSW 24 35 13 19 1010.6 1012.9 0.0
16/06:30pm 3.2 -3.6 3.2 100 0.0 WSW 28 33 15 18 1010.8 1013.0 0.0
16/06:00pm 3.4 -2.6 3.4 100 0.0 SW 24 32 13 17 1010.8 1013.0 0.0
16/05:30pm 3.6 -3.5 3.6 100 0.0 SW 30 41 16 22 1010.9 1013.1 0.0
16/05:00pm 3.7 -2.2 3.7 100 0.0 WSW 24 35 13 19 1010.9 1013.1 0.0
16/04:30pm 4.1 -2.5 4.1 100 0.0 SW 28 41 15 22 1010.6 1012.9 0.0
16/04:00pm 4.0 -2.3 4.0 100 0.0 WSW 26 41 14 22 1010.4 1012.7 0.0
16/03:30pm 4.4 -2.2 4.4 100 0.0 SW 28 41 15 22 1010.2 1012.4 0.0
16/03:00pm 4.8 -2.4 4.8 100 0.0 SW 32 43 17 23 1010.1 1012.3 0.0
16/02:30pm 4.7 -1.4 4.7 100 0.0 SW 26 37 14 20 1010.0 1012.2 0.0
16/02:00pm 4.5 -3.4 4.5 100 0.0 WSW 35 46 19 25 1009.8 1012.0 0.0
16/01:30pm 4.8 -2.1 4.8 100 0.0 SW 30 41 16 22 1010.0 1012.2 0.0
16/01:00pm 4.7 -1.8 4.7 100 0.0 SW 28 39 15 21 1010.3 1012.5 0.0
16/12:30pm 4.2 -0.9 4.2 100 0.0 WSW 20 28 11 15 1010.5 1012.8 0.0
16/12:00pm 4.0 -2.3 4.0 100 0.0 WSW 26 35 14 19 1010.4 1012.7 0.0
16/11:30am 3.9 -1.0 3.9 100 0.0 WSW 19 26 10 14 1010.4 1012.7 0.0
16/11:00am 3.7 -1.9 3.7 100 0.0 WSW 22 30 12 16 1010.6 1012.9 0.0
16/10:30am 3.5 -2.1 3.5 100 0.0 WSW 22 30 12 16 1010.6 1012.9 0.0
16/10:00am 3.5 -2.8 3.5 100 0.0 SW 26 43 14 23 1010.8 1013.0 0.0
16/09:30am 3.3 -2.3 3.3 100 0.0 SW 22 32 12 17 1010.4 1012.7 0.0
16/09:07am 3.4 -5.1 3.4 100 0.0 WSW 37 56 20 30 1009.5 1011.8 0.0
16/09:00am 3.2 -5.3 3.2 100 0.0 WSW 37 50 20 27 1009.5 1011.8 0.0
16/08:34am 3.0 -6.3 3.0 100 0.0 WSW 41 59 22 32 1008.6 1010.8 0.0
16/08:30am 3.1 -6.7 3.1 100 0.0 WSW 44 59 24 32 1008.5 1010.7 0.0
16/08:03am 2.9 -7.4 2.9 100 0.0 WSW 46 65 25 35 1008.3 1010.5 0.0
16/08:00am 3.0 -8.0 3.0 100 0.0 WSW 50 65 27 35 1008.3 1010.5 0.0
16/07:36am 2.6 -6.4 2.6 100 0.0 WSW 39 57 21 31 1008.4 1010.6 0.0
16/07:30am 2.9 -6.8 2.9 100 0.0 WSW 43 57 23 31 1008.4 1010.6 0.0
16/07:06am 2.7 -6.3 2.7 100 0.0 WSW 39 57 21 31 1008.1 1010.3 0.0
16/07:00am 2.9 -6.8 2.9 100 0.0 SW 43 57 23 31 1008.2 1010.4 0.0
16/06:43am 2.9 -5.6 2.9 100 0.0 WSW 37 56 20 30 1008.1 1010.3 0.0
16/06:30am 2.8 -6.1 2.8 100 0.0 WSW 39 54 21 29 1008.1 1010.3 0.0
16/06:00am 2.6 -6.4 2.6 100 0.0 WSW 39 54 21 29 1007.7 1009.8 0.0
16/05:30am 2.3 -7.7 2.3 100 0.0 WSW 44 65 24 35 1007.3 1009.5 0.0
16/05:25am 2.4 -7.4 2.4 100 0.0 WSW 43 65 23 35 1007.2 1009.4 0.0
16/05:00am 2.1 -7.3 2.1 100 0.0 WSW 41 56 22 30 1007.2 1009.4 0.0
16/04:30am 2.3 -7.5 2.3 100 0.0 WSW 43 61 23 33 1007.1 1009.2 0.0
16/04:06am 3.0 -7.6 3.0 100 0.0 WSW 48 67 26 36 1006.7 1008.8 0.0
16/04:00am 3.2 -8.1 3.2 100 0.0 WSW 52 65 28 35 1006.5 1008.7 0.0
16/03:30am 2.9 -8.1 2.9 100 0.0 WSW 50 69 27 37 1006.8 1008.9 0.0
16/03:09am 3.0 -6.9 3.0 100 0.0 WSW 44 63 24 34 1007.1 1009.2 0.0
16/03:00am 2.9 -6.8 2.9 100 0.0 WSW 43 59 23 32 1007.4 1009.6 0.0
16/02:37am 2.9 -7.0 2.9 100 0.0 WSW 44 63 24 34 1007.4 1009.6 0.0
16/02:30am 3.1 -7.1 3.1 100 0.0 WSW 46 63 25 34 1007.1 1009.2 0.0
16/02:01am 3.1 -9.0 3.1 100 0.0 WSW 56 76 30 41 1006.4 1008.6 0.0
16/02:00am 2.9 -8.9 2.9 100 0.0 WSW 54 70 29 38 1006.4 1008.6 0.0
16/01:37am 3.3 -9.0 3.3 100 0.0 WSW 57 80 31 43 1006.5 1008.7 0.0
16/01:30am 3.2 -8.5 3.2 100 0.0 WSW 54 69 29 37 1006.5 1008.7 0.0
16/01:00am 3.3 -8.4 3.3 100 0.0 WSW 54 72 29 39 1006.8 1008.9 0.0
16/12:30am 3.3 -8.0 3.3 100 0.0 WSW 52 70 28 38 1007.0 1009.1 0.0
16/12:17am 3.0 -8.0 3.0 100 0.0 WSW 50 70 27 38 1007.1 1009.2 0.0
16/12:00am 2.9 -8.1 2.9 100 0.0 WSW 50 67 27 36 1007.3 1009.5 0.0
 
Date/Time
EST
Temp
°C
App
Temp
°C
Dew
Point
°C
Rel
Hum
%
Delta-T
°C
Wind Press
QNH
hPa
Press
MSL
hPa
Rain since
9am
mm
Dir  Spd
km/h
Gust
km/h
Spd
kts
Gust
kts
15/11:30pm 3.2 -8.1 3.2 100 0.0 WSW 52 70 28 38 1007.7 1009.8 0.0
15/11:10pm 2.8 -8.2 2.8 100 0.0 WSW 50 69 27 37 1008.0 1010.2 0.0
15/11:00pm 3.1 -8.6 3.1 100 0.0 WSW 54 70 29 38 1008.0 1010.2 0.0
15/10:48pm 3.1 -8.6 3.1 100 0.0 WSW 54 72 29 39 1008.1 1010.3 0.0
15/10:30pm 3.2 -8.5 3.2 100 0.0 WSW 54 69 29 37 1008.0 1010.2 0.0
15/10:00pm 3.2 -8.5 3.2 100 0.0 WSW 54 74 29 40 1008.3 1010.5 0.0
15/09:31pm 3.2 -8.5 3.2 100 0.0 WSW 54 72 29 39 1008.2 1010.4 0.0
15/09:30pm 3.3 -8.8 3.3 100 0.0 WSW 56 72 30 39 1008.2 1010.4 0.0
15/09:00pm 3.3 -9.0 3.3 100 0.0 WSW 57 78 31 42 1008.0 1010.2 0.0
15/08:35pm 3.5 -9.9 3.5 100 0.0 WSW 63 82 34 44 1007.2 1009.4 0.0
15/08:30pm 3.3 -9.7 3.3 100 0.0 WSW 61 78 33 42 1007.1 1009.2 0.0
15/08:00pm 3.5 -9.9 3.5 100 0.0 WSW 63 83 34 45 1006.7 1008.8 0.0
15/07:30pm 3.6 -10.1 3.6 100 0.0 WSW 65 85 35 46 1006.4 1008.6 0.0
15/07:02pm 3.5 -9.5 3.5 100 0.0 WSW 61 80 33 43 1006.1 1008.2 0.0
15/07:00pm 3.4 -9.2 3.4 100 0.0 WSW 59 76 32 41 1006.2 1008.3 0.0
15/06:37pm 3.2 -9.9 3.2 100 0.0 WSW 61 80 33 43 1006.1 1008.2 0.0
15/06:30pm 3.3 -10.1 3.3 100 0.0 WSW 63 80 34 43 1006.0 1008.1 0.0
15/06:01pm 3.4 -10.4 3.4 100 0.0 WSW 65 85 35 46 1005.4 1007.5 0.0
15/06:00pm 3.3 -10.5 3.3 100 0.0 WSW 65 82 35 44 1005.4 1007.5 0.0
15/05:30pm 3.0 -9.7 3.0 100 0.0 WSW 59 80 32 43 1005.7 1007.8 0.0

Other formats

Comma delimited format used in spreadsheet applications
http://www.bom.gov.au/fwo/IDT60801/IDT60801.95959.axf

JavaScript Object Notation format (JSON) in row-major order
http://www.bom.gov.au/fwo/IDT60801/IDT60801.95959.json

Data quality

Most of these data are generated automatically and are frequently updated. Quality checks on data are not normally performed. It is possible for incorrect values to appear. Refer to information at About Latest Weather Observations and please check the disclaimer before using these data.